createdAt,value
2023-04-19T09:19:52.051Z,51.69
2023-04-19T09:22:20.075Z,51.54
2023-04-19T09:27:26.872Z,51.70
2023-04-19T09:29:55.362Z,51.74
2023-04-19T09:32:23.493Z,51.54
2023-04-19T09:34:56.890Z,51.58
2023-04-19T09:37:41.470Z,51.37
2023-04-19T09:40:25.155Z,51.19
2023-04-19T09:48:02.587Z,51.22
2023-04-19T09:50:33.498Z,51.16
2023-04-19T09:53:03.892Z,51.25
2023-04-19T09:55:41.264Z,51.24
2023-04-19T09:58:13.012Z,51.07
2023-04-19T10:00:48.006Z,51.22
2023-04-19T10:03:18.687Z,50.95
2023-04-19T10:05:48.592Z,51.23
2023-04-19T10:08:16.785Z,50.91
2023-04-19T10:10:45.627Z,51.16
2023-04-19T10:15:51.244Z,50.36
2023-04-19T10:18:21.623Z,49.86
2023-04-19T10:20:54.461Z,49.79
2023-04-19T10:23:22.409Z,49.68
2023-04-19T10:25:50.380Z,49.43
2023-04-19T10:28:18.370Z,49.34
2023-04-19T10:30:55.811Z,49.46
2023-04-19T10:33:27.862Z,49.41
2023-04-19T10:35:58.818Z,49.35
2023-04-19T10:38:40.247Z,49.49
2023-04-19T10:41:16.889Z,49.41
2023-04-19T10:43:47.227Z,49.60
2023-04-19T10:46:18.101Z,49.61
2023-04-19T10:48:55.835Z,49.30
2023-04-19T10:51:27.884Z,49.56
2023-04-19T10:53:57.568Z,49.59
2023-04-19T10:57:11.219Z,49.59
2023-04-19T10:59:40.386Z,49.43
2023-04-19T11:02:29.041Z,49.40
2023-04-19T11:05:01.991Z,49.56
2023-04-19T11:07:38.059Z,49.51
2023-04-19T11:10:06.731Z,49.32
2023-04-19T11:12:35.076Z,49.31
2023-04-19T11:15:03.216Z,49.42
2023-04-19T11:17:32.269Z,49.23
2023-04-19T11:20:00.855Z,49.13
2023-04-19T11:22:33.915Z,49.27
2023-04-19T11:25:13.459Z,49.44
2023-04-19T11:27:41.524Z,49.08
2023-04-19T11:30:10.611Z,49.21
2023-04-19T11:32:38.700Z,49.12
2023-04-19T11:35:08.930Z,49.19
2023-04-19T11:37:39.394Z,49.29
2023-04-19T11:40:08.677Z,49.63
2023-04-19T11:42:37.023Z,49.51
2023-04-19T11:45:08.995Z,48.88
2023-04-19T11:47:49.291Z,48.59
2023-04-19T11:50:33.373Z,48.53
2023-04-19T11:53:10.966Z,48.72
2023-04-19T11:55:39.244Z,48.56
2023-04-19T11:58:09.812Z,48.53
2023-04-19T12:00:38.220Z,48.47
2023-04-19T12:03:06.684Z,49.05
2023-04-19T12:05:35.085Z,48.92
2023-04-19T12:08:05.218Z,48.86
2023-04-19T12:10:33.316Z,49.03
2023-04-19T12:13:01.385Z,49.01
2023-04-19T12:15:44.452Z,48.98
2023-04-19T12:18:12.811Z,49.01
2023-04-19T12:20:45.331Z,49.09
2023-04-19T12:23:15.865Z,48.87
2023-04-19T12:25:44.221Z,48.94
2023-04-19T12:28:12.404Z,48.80
2023-04-19T12:30:40.743Z,48.70
2023-04-19T12:33:08.946Z,48.89
2023-04-19T12:35:38.661Z,48.87
2023-04-19T12:38:06.819Z,48.70
2023-04-19T12:40:36.642Z,48.70
2023-04-19T12:43:05.337Z,48.48
2023-04-19T12:45:35.058Z,48.39
2023-04-19T12:48:03.494Z,48.23
2023-04-19T12:50:31.610Z,48.35
2023-04-19T12:52:59.629Z,48.18
2023-04-19T12:55:27.750Z,48.13
2023-04-19T12:57:57.306Z,48.22
2023-04-19T13:00:25.598Z,48.32
2023-04-19T13:02:53.687Z,48.31
2023-04-19T13:05:21.759Z,48.06
2023-04-19T13:07:50.024Z,48.08
2023-04-19T13:10:18.379Z,48.06
2023-04-19T13:12:46.404Z,47.92
2023-04-19T13:15:15.772Z,48.12
2023-04-19T13:17:43.829Z,47.82
2023-04-19T13:20:12.450Z,47.90
2023-04-19T13:22:40.414Z,47.67
2023-04-19T13:25:09.034Z,47.69
2023-04-19T13:27:37.079Z,47.49
2023-04-19T13:30:05.405Z,47.69
2023-04-19T13:32:35.017Z,47.28
2023-04-19T13:35:03.024Z,47.49
2023-04-19T13:37:31.032Z,47.29
2023-04-19T13:40:10.548Z,47.59
2023-04-19T13:42:43.276Z,47.31
2023-04-19T13:45:11.689Z,47.23
2023-04-19T13:47:44.277Z,47.47
2023-04-19T13:50:13.123Z,47.34
2023-04-19T13:52:41.217Z,47.21
2023-04-19T13:55:09.965Z,47.57
2023-04-19T13:57:37.960Z,47.08
2023-04-19T14:00:07.336Z,47.60
2023-04-19T14:02:35.401Z,47.00
2023-04-19T14:05:05.082Z,47.18
2023-04-19T14:07:33.941Z,47.23
2023-04-19T14:10:01.999Z,47.29
2023-04-19T14:12:31.018Z,46.87
2023-04-19T14:14:58.940Z,46.83
2023-04-19T14:17:27.192Z,46.77
2023-04-19T14:19:55.246Z,46.82
2023-04-19T14:22:24.717Z,46.68
2023-04-19T14:24:52.710Z,46.47
2023-04-19T14:27:20.801Z,46.70
2023-04-19T14:29:48.776Z,46.34
2023-04-19T14:32:26.212Z,45.89
2023-04-19T14:34:55.182Z,45.58
2023-04-19T14:37:24.704Z,44.50
2023-04-19T14:39:52.726Z,43.97
2023-04-19T14:42:22.614Z,42.94
2023-04-19T14:44:52.224Z,42.08
2023-04-19T14:47:20.261Z,41.95
2023-04-19T14:49:48.295Z,40.92
2023-04-19T14:52:16.494Z,40.86
2023-04-19T14:54:46.120Z,40.06
2023-04-19T14:57:14.390Z,39.55
2023-04-19T14:59:42.343Z,39.51
2023-04-19T15:02:13.426Z,39.43
2023-04-19T15:04:42.179Z,39.09
2023-04-19T15:07:10.701Z,39.05
2023-04-19T15:09:38.684Z,39.17
2023-04-19T15:12:08.062Z,38.84
2023-04-19T15:14:36.024Z,38.81
2023-04-19T15:17:04.060Z,38.71
2023-04-19T15:19:31.978Z,38.62
2023-04-19T15:22:00.054Z,38.77
2023-04-19T15:24:28.036Z,38.46
2023-04-19T15:26:56.761Z,38.47
2023-04-19T15:29:26.386Z,38.50
2023-04-19T15:31:54.361Z,38.42
2023-04-19T15:34:22.402Z,38.52
2023-04-19T15:36:50.924Z,38.73
2023-04-19T15:39:19.100Z,38.72
2023-04-19T15:41:47.025Z,38.96
2023-04-19T15:44:14.921Z,39.32
2023-04-19T15:46:44.331Z,39.73
2023-04-19T15:49:12.452Z,40.27
2023-04-19T15:51:40.695Z,40.14
2023-04-19T15:54:08.603Z,40.57
2023-04-19T15:56:36.575Z,40.85
2023-04-19T15:59:04.520Z,40.71
2023-04-19T16:01:32.510Z,41.32
2023-04-19T16:04:03.789Z,41.31
2023-04-19T16:06:32.088Z,41.75
2023-04-19T16:08:59.991Z,42.22
2023-04-19T16:11:27.982Z,41.99
2023-04-19T16:13:56.159Z,42.55
2023-04-19T16:16:26.577Z,42.45
2023-04-19T16:18:54.653Z,42.29
2023-04-19T16:21:23.924Z,42.70
2023-04-19T16:23:51.856Z,42.28
2023-04-19T16:26:19.767Z,42.92
2023-04-19T16:28:48.375Z,42.82
2023-04-19T16:31:16.339Z,42.99
2023-04-19T16:33:44.277Z,42.68
2023-04-19T16:36:12.243Z,43.30
2023-04-19T16:38:41.577Z,43.39
2023-04-19T16:41:09.715Z,43.09
2023-04-19T16:43:37.720Z,43.17
2023-04-19T16:46:07.135Z,43.18
2023-04-19T16:48:35.164Z,43.26
2023-04-19T16:51:03.435Z,43.44
2023-04-19T16:53:32.169Z,43.48
2023-04-19T16:56:03.563Z,43.47
2023-04-19T16:58:31.802Z,44.00
2023-04-19T17:00:59.772Z,44.11
2023-04-19T17:03:29.497Z,44.14
2023-04-19T17:05:57.586Z,44.32
2023-04-19T17:08:26.467Z,44.24
2023-04-19T17:10:54.377Z,43.82
2023-04-19T17:13:23.689Z,43.71
2023-04-19T17:15:51.703Z,43.60
2023-04-19T17:18:19.664Z,44.02
2023-04-19T17:20:47.709Z,44.06
2023-04-19T17:23:15.784Z,43.86
2023-04-19T17:25:43.800Z,43.59
2023-04-19T17:28:11.816Z,43.43
2023-04-19T17:30:41.360Z,43.69
2023-04-19T17:33:09.337Z,43.71
2023-04-19T17:35:37.481Z,43.81
2023-04-19T17:38:05.661Z,43.47
2023-04-19T17:40:33.589Z,43.27
2023-04-19T17:43:01.644Z,43.47
2023-04-19T17:45:29.548Z,43.93
2023-04-19T17:47:58.933Z,43.46
2023-04-19T17:50:27.295Z,43.86
2023-04-19T17:52:55.771Z,43.64
2023-04-19T17:55:25.451Z,44.15
2023-04-19T17:57:53.422Z,44.26
2023-04-19T18:00:21.841Z,43.98
2023-04-19T18:02:49.865Z,43.98
2023-04-19T18:05:19.318Z,43.95
2023-04-19T18:07:47.758Z,44.57
2023-04-19T18:10:15.706Z,44.28
2023-04-19T18:12:43.758Z,44.59
2023-04-19T18:15:12.544Z,44.87
2023-04-19T18:17:41.326Z,44.71
2023-04-19T18:20:11.873Z,45.37
2023-04-19T18:22:42.973Z,45.31
2023-04-19T18:25:11.267Z,45.56
2023-04-19T18:27:39.282Z,45.59
2023-04-19T18:30:08.258Z,45.81
2023-04-19T18:32:36.248Z,45.65
2023-04-19T18:35:04.527Z,46.04
2023-04-19T18:37:32.546Z,46.26
2023-04-19T18:40:01.869Z,46.29
2023-04-19T18:42:29.782Z,46.34
2023-04-19T18:44:57.711Z,46.62
2023-04-19T18:47:27.083Z,46.84
2023-04-19T18:50:03.629Z,47.00
2023-04-19T18:52:34.030Z,47.05
2023-04-19T18:55:03.500Z,47.06
2023-04-19T18:57:34.657Z,47.45
2023-04-19T19:00:05.274Z,47.35
2023-04-19T19:02:36.220Z,47.48
2023-04-19T19:07:36.666Z,47.64
2023-04-19T19:10:17.324Z,47.77
2023-04-19T19:12:48.770Z,48.04
2023-04-19T19:15:16.891Z,47.92
2023-04-19T19:17:49.457Z,48.13
2023-04-19T19:20:18.759Z,48.44
2023-04-19T19:22:46.789Z,48.43
2023-04-19T19:25:16.614Z,48.25
2023-04-19T19:28:02.839Z,48.43
2023-04-19T19:30:33.937Z,48.50
2023-04-19T19:33:02.784Z,48.90
2023-04-19T19:35:31.344Z,49.17
2023-04-19T19:37:59.358Z,49.44
2023-04-19T19:40:31.147Z,49.50
2023-04-19T19:43:00.726Z,49.29
2023-04-19T19:45:29.076Z,49.59
2023-04-19T19:47:58.847Z,49.83
2023-04-19T19:51:05.151Z,49.82
2023-04-19T19:53:16.785Z,50.02
2023-04-19T19:55:46.101Z,49.87
2023-04-19T19:58:35.367Z,50.07
2023-04-19T20:01:03.154Z,50.47
2023-04-19T20:03:37.508Z,50.37
2023-04-19T20:08:42.484Z,50.41
2023-04-19T20:11:13.469Z,50.56
2023-04-19T20:13:41.525Z,50.52
2023-04-19T20:16:10.008Z,50.56
2023-04-19T20:18:38.771Z,50.62
2023-04-19T20:21:06.698Z,51.04
2023-04-19T20:23:34.662Z,50.85
2023-04-19T20:26:02.629Z,50.86
2023-04-19T20:28:32.038Z,50.79
2023-04-19T20:31:00.011Z,50.84
2023-04-19T20:33:28.912Z,50.75
2023-04-19T20:35:56.870Z,50.74
2023-04-19T20:38:26.513Z,50.71
2023-04-19T20:40:54.807Z,50.88
2023-04-19T20:43:22.979Z,50.79
2023-04-19T20:45:52.334Z,51.07
2023-04-19T20:48:20.487Z,51.37
2023-04-19T20:50:48.397Z,51.44
2023-04-19T20:53:16.457Z,51.36
2023-04-19T20:55:44.734Z,51.39
2023-04-19T20:58:12.757Z,51.47
2023-04-19T21:00:40.752Z,51.34
2023-04-19T21:03:10.188Z,51.28
2023-04-19T21:05:38.189Z,51.30
2023-04-19T21:08:06.394Z,51.35
2023-04-19T21:10:34.336Z,51.42
2023-04-19T21:13:02.341Z,51.74
2023-04-19T21:15:30.280Z,51.60
2023-04-19T21:17:58.221Z,51.77
2023-04-19T21:20:27.622Z,51.91
2023-04-19T21:22:55.514Z,52.17
2023-04-19T21:25:23.520Z,52.28
2023-04-19T21:27:51.462Z,51.87
2023-04-19T21:30:20.458Z,52.01
2023-04-19T21:32:49.849Z,52.13
2023-04-19T21:35:18.036Z,52.11
2023-04-19T21:37:47.462Z,52.35
2023-04-19T21:40:15.501Z,52.27
2023-04-19T21:42:43.445Z,52.46
2023-04-19T21:45:12.455Z,52.71
2023-04-19T21:47:40.418Z,52.52
2023-04-19T21:50:09.783Z,52.63
2023-04-19T21:52:37.693Z,52.34
2023-04-19T21:55:08.548Z,52.24
2023-04-19T21:57:38.264Z,52.64
2023-04-19T22:00:09.126Z,52.59
2023-04-19T22:02:37.408Z,52.66
2023-04-19T22:05:07.360Z,52.50
2023-04-19T22:07:38.089Z,52.43
2023-04-19T22:10:09.414Z,52.42
2023-04-19T22:12:45.126Z,52.72
2023-04-19T22:15:19.638Z,52.42
2023-04-19T22:17:48.205Z,52.16
2023-04-19T22:20:16.241Z,52.15
2023-04-19T22:22:44.197Z,52.21
2023-04-19T22:25:13.508Z,52.36
2023-04-19T22:27:41.463Z,52.64
2023-04-19T22:30:10.106Z,52.45
2023-04-19T22:32:38.115Z,52.32
2023-04-19T22:35:07.413Z,52.27
2023-04-19T22:37:35.404Z,52.23
2023-04-19T22:40:05.292Z,52.56
2023-04-19T22:42:38.174Z,52.64
2023-04-19T22:45:07.293Z,52.80
2023-04-19T22:47:35.299Z,52.78
2023-04-19T22:50:03.230Z,52.62
2023-04-19T22:52:31.133Z,52.90
2023-04-19T22:54:59.090Z,53.19
2023-04-19T22:57:26.990Z,52.92
2023-04-19T22:59:57.488Z,52.92
2023-04-19T23:02:25.722Z,52.95
2023-04-19T23:04:54.386Z,52.65
2023-04-19T23:07:22.736Z,52.62
2023-04-19T23:09:51.701Z,52.73
2023-04-19T23:12:19.646Z,52.69
2023-04-19T23:14:48.426Z,52.55
2023-04-19T23:17:18.164Z,52.65
2023-04-19T23:19:46.405Z,52.54
2023-04-19T23:22:14.337Z,52.67
2023-04-19T23:24:42.274Z,52.53
2023-04-19T23:27:10.209Z,52.69
2023-04-19T23:29:38.201Z,52.44
2023-04-19T23:32:06.233Z,52.48
2023-04-19T23:34:35.570Z,52.71
2023-04-19T23:37:03.537Z,52.46
2023-04-19T23:39:31.645Z,52.43
2023-04-19T23:41:59.619Z,52.64
2023-04-19T23:44:28.030Z,52.58
2023-04-19T23:46:56.081Z,52.57
2023-04-19T23:49:23.981Z,52.82
2023-04-19T23:51:53.300Z,53.05
2023-04-19T23:54:25.741Z,52.80
2023-04-19T23:56:53.703Z,53.33
2023-04-19T23:59:22.443Z,53.21
